Wilson Gdynia — 8PSA — position and weather

sailwx.info

Track history (hours):
 
Tides and Currents Weather Stations Pressure Air Temp Water Temp Dewpoint Dewpoint Depression Visibility Wind Speed Wind Dir Waves Ship Positions

Wilson Gdynia

Last reported at 2015-May-07 02:31 UTC. Time now 2015-May-07 03:35 UTC.
Position N 52°25' E 004°49'.

Length 88 m; draft 5.3 m.

Type: Cargo ship. MMSI: 314192000.

Date/timePositionNaut miles runAvg speedWind from/ knotsBaromVisibWave heightAir tempDewpointWater temp
2015-May-07 02:31N 52°25' E 004°49'0 0.0
2015-May-07 01:22N 52°25' E 004°49'0 0.0
2015-May-07 00:25N 52°25' E 004°49'0 0.0
2015-May-06 23:25N 52°25' E 004°49'0 0.0
2015-May-06 22:28N 52°25' E 004°49'0 0.0
2015-May-06 21:25N 52°25' E 004°49'0 0.0
2015-May-06 20:31N 52°25' E 004°49'0 0.0
2015-May-06 19:28N 52°25' E 004°49'0 0.0
2015-May-06 18:28N 52°25' E 004°49'0 0.0
2015-May-06 17:31N 52°25' E 004°49'0 0.0
2015-May-06 16:31N 52°25' E 004°49'0 0.0
2015-May-06 15:31N 52°25' E 004°49'0 0.0
2015-May-06 14:28N 52°25' E 004°49'0 0.0
2015-May-06 13:31N 52°25' E 004°49'0 0.0
2015-May-06 12:31N 52°25' E 004°49'0 0.0
2015-May-06 11:33N 52°25' E 004°49'5 5.2
2015-May-06 10:33N 52°27' E 004°41'5 4.6
2015-May-06 09:33N 52°28' E 004°34'9 9.3
2015-May-06 08:33N 52°28' E 004°19'8 8.0
2015-May-06 07:33N 52°32' E 004°07'8 7.7
2015-May-06 06:33N 52°39' E 004°02'6 6.3
2015-May-06 05:33N 52°45' E 003°59'5 4.6
2015-May-06 04:33N 52°50' E 003°58'4 4.0
2015-May-06 03:33N 52°54' E 003°59'4 4.0
2015-May-06 02:29N 52°58' E 004°02'5 5.2
2015-May-06 01:32N 53°01' E 004°08'29 4.6
2015-May-05 19:11N 53°26' E 004°35'2 2.5
2015-May-05 18:14N 53°28' E 004°36'2 2.2
2015-May-05 17:12N 53°30' E 004°37'2 2.2
2015-May-05 16:29N 53°32' E 004°38'4 3.4
2015-May-05 15:23N 53°35' E 004°39'11 5.2
2015-May-05 13:19N 53°46' E 004°43'12 6.9
2015-May-05 11:32N 53°58' E 004°48'296 6.7
2015-May-03 15:14N 58°54' E 004°42'6 7.2
2015-May-03 14:28N 58°59' E 004°42'7 7.5
2015-May-03 13:33N 59°06' E 004°41'8 7.6
2015-May-03 12:30N 59°14' E 004°39'204 8.1
2015-May-02 11:24N 62°36' E 005°40'16 7.9
2015-May-02 09:19N 62°47' E 006°06'10 8.1
2015-May-02 08:07N 62°54' E 006°21'96 9.0
2015-May-01 21:27N 63°37' E 009°31'8 7.6
2015-May-01 20:27N 63°36' E 009°48'9 9.5
2015-May-01 19:33N 63°29' E 009°58'10 9.6
2015-May-01 18:33N 63°32' E 010°19'1010.1
2015-May-01 17:33N 63°38' E 010°37'1010.1
2015-May-01 16:33N 63°44' E 010°56'8 0.2
2015-Apr-30 02:32N 63°51' E 011°05'10 9.8
2015-Apr-30 01:34N 63°42' E 010°53'1010.2
2015-Apr-30 00:33N 63°36' E 010°35'10 9.9
2015-Apr-29 23:33N 63°31' E 010°16'9 9.3
2015-Apr-29 22:34N 63°29' E 009°56'16 7.5
2015-Apr-29 20:22N 63°37' E 009°23'6 7.4
2015-Apr-29 19:34N 63°43' E 009°18'1 0.1
2015-Apr-29 06:10N 63°43' E 009°19'610.8
2015-Apr-29 05:33N 63°37' E 009°16'66 9.1
2015-Apr-28 22:15N 63°08' E 007°03'31 9.7
2015-Apr-28 19:06N 62°49' E 006°10'1010.7
2015-Apr-28 18:11N 62°42' E 005°54'211 9.7
2015-Apr-27 20:33N 59°15' E 004°38'10 9.5
2015-Apr-27 19:29N 59°05' E 004°41'  
Track history (hours):
 
Tides and Currents Weather Stations Pressure Air Temp Water Temp Dewpoint Dewpoint Depression Visibility Wind Speed Wind Dir Waves Ship Positions

Wilson Gdynia

Last reported at 2015-May-07 02:31 UTC. Time now 2015-May-07 03:35 UTC.
Position N 52°25' E 004°49'.

Length 88 m; draft 5.3 m.

Type: Cargo ship. MMSI: 314192000.

Date/timePositionNaut miles runAvg speedWind from/ knotsBaromVisibWave heightAir tempDewpointWater temp
2015-May-07 02:31N 52°25' E 004°49'0 0.0
2015-May-07 01:22N 52°25' E 004°49'0 0.0
2015-May-07 00:25N 52°25' E 004°49'0 0.0
2015-May-06 23:25N 52°25' E 004°49'0 0.0
2015-May-06 22:28N 52°25' E 004°49'0 0.0
2015-May-06 21:25N 52°25' E 004°49'0 0.0
2015-May-06 20:31N 52°25' E 004°49'0 0.0
2015-May-06 19:28N 52°25' E 004°49'0 0.0
2015-May-06 18:28N 52°25' E 004°49'0 0.0
2015-May-06 17:31N 52°25' E 004°49'0 0.0
2015-May-06 16:31N 52°25' E 004°49'0 0.0
2015-May-06 15:31N 52°25' E 004°49'0 0.0
2015-May-06 14:28N 52°25' E 004°49'0 0.0
2015-May-06 13:31N 52°25' E 004°49'0 0.0
2015-May-06 12:31N 52°25' E 004°49'0 0.0
2015-May-06 11:33N 52°25' E 004°49'5 5.2
2015-May-06 10:33N 52°27' E 004°41'5 4.6
2015-May-06 09:33N 52°28' E 004°34'9 9.3
2015-May-06 08:33N 52°28' E 004°19'8 8.0
2015-May-06 07:33N 52°32' E 004°07'8 7.7
2015-May-06 06:33N 52°39' E 004°02'6 6.3
2015-May-06 05:33N 52°45' E 003°59'5 4.6
2015-May-06 04:33N 52°50' E 003°58'4 4.0
2015-May-06 03:33N 52°54' E 003°59'4 4.0
2015-May-06 02:29N 52°58' E 004°02'5 5.2
2015-May-06 01:32N 53°01' E 004°08'29 4.6
2015-May-05 19:11N 53°26' E 004°35'2 2.5
2015-May-05 18:14N 53°28' E 004°36'2 2.2
2015-May-05 17:12N 53°30' E 004°37'2 2.2
2015-May-05 16:29N 53°32' E 004°38'4 3.4
2015-May-05 15:23N 53°35' E 004°39'11 5.2
2015-May-05 13:19N 53°46' E 004°43'12 6.9
2015-May-05 11:32N 53°58' E 004°48'296 6.7
2015-May-03 15:14N 58°54' E 004°42'6 7.2
2015-May-03 14:28N 58°59' E 004°42'7 7.5
2015-May-03 13:33N 59°06' E 004°41'8 7.6
2015-May-03 12:30N 59°14' E 004°39'204 8.1
2015-May-02 11:24N 62°36' E 005°40'16 7.9
2015-May-02 09:19N 62°47' E 006°06'10 8.1
2015-May-02 08:07N 62°54' E 006°21'96 9.0
2015-May-01 21:27N 63°37' E 009°31'8 7.6
2015-May-01 20:27N 63°36' E 009°48'9 9.5
2015-May-01 19:33N 63°29' E 009°58'10 9.6
2015-May-01 18:33N 63°32' E 010°19'1010.1
2015-May-01 17:33N 63°38' E 010°37'1010.1
2015-May-01 16:33N 63°44' E 010°56'8 0.2
2015-Apr-30 02:32N 63°51' E 011°05'10 9.8
2015-Apr-30 01:34N 63°42' E 010°53'1010.2
2015-Apr-30 00:33N 63°36' E 010°35'10 9.9
2015-Apr-29 23:33N 63°31' E 010°16'9 9.3
2015-Apr-29 22:34N 63°29' E 009°56'16 7.5
2015-Apr-29 20:22N 63°37' E 009°23'6 7.4
2015-Apr-29 19:34N 63°43' E 009°18'1 0.1
2015-Apr-29 06:10N 63°43' E 009°19'610.8
2015-Apr-29 05:33N 63°37' E 009°16'66 9.1
2015-Apr-28 22:15N 63°08' E 007°03'31 9.7
2015-Apr-28 19:06N 62°49' E 006°10'1010.7
2015-Apr-28 18:11N 62°42' E 005°54'211 9.7
2015-Apr-27 20:33N 59°15' E 004°38'10 9.5
2015-Apr-27 19:29N 59°05' E 004°41'  

Dump ship's entire track history